KJAS/JAS METAR and TAF weather

Enter ICAO airport designator
Station Type Date Time Source
KJAS METAR 2021/01/17 18:15 UTC NOAA

KJAS 171815Z AUTO 32008KT 10SM CLR 17/M02 A3012 RMK AO2 T01671019


Station Type Date Time Source
KJAS Decoded METAR 2021/01/17 18:15 UTC NOAA

Jasper, Jasper County-Bell Field Airport, TX, United States (KJAS) 30-53-08N 094-02-05W
Jan 17, 2021 - 01:15 PM EST / 2021.01.17 1815 UTC
Wind: from the NW (320 degrees) at 9 MPH (8 KT):0
Visibility: 10 mile(s):0
Sky conditions: clear
Temperature: 62.1 F (16.7 C)
Dew Point: 28.6 F (-1.9 C)
Relative Humidity: 27%
Pressure (altimeter): 30.12 in. Hg (1019 hPa)
ob: KJAS 171815Z AUTO 32008KT 10SM CLR 17/M02 A3012 RMK AO2 T01671019
cycle: 18

Station Type Date Time Source
KJAS TAF UTC NOAA

Error!

Example: see airport list